createdAt,value
2023-02-11T00:01:22.286Z,28.03
2023-02-11T00:03:50.052Z,29.80
2023-02-11T00:06:18.293Z,30.60
2023-02-11T00:08:46.345Z,30.63
2023-02-11T00:11:15.667Z,28.33
2023-02-11T00:13:44.025Z,26.37
2023-02-11T00:16:15.622Z,26.90
2023-02-11T00:18:43.804Z,29.23
2023-02-11T00:21:14.471Z,31.53
2023-02-11T00:23:42.464Z,30.43
2023-02-11T00:26:13.624Z,29.07
2023-02-11T00:28:41.583Z,29.70
2023-02-11T00:31:09.505Z,34.03
2023-02-11T00:33:38.776Z,30.17
2023-02-11T00:36:07.547Z,30.90
2023-02-11T00:38:35.326Z,31.13
2023-02-11T00:41:03.051Z,31.67
2023-02-11T00:43:30.878Z,31.43
2023-02-11T00:45:58.544Z,30.40
2023-02-11T00:48:26.350Z,28.63
2023-02-11T00:50:55.700Z,31.47
2023-02-11T00:53:23.433Z,29.50
2023-02-11T00:55:52.494Z,31.83
2023-02-11T00:58:20.421Z,31.47
2023-02-11T01:00:48.328Z,30.33
2023-02-11T01:03:16.172Z,33.03
2023-02-11T01:05:43.961Z,32.03
2023-02-11T01:08:13.493Z,30.87
2023-02-11T01:10:41.263Z,30.57
2023-02-11T01:13:09.018Z,33.70
2023-02-11T01:15:36.834Z,31.17
2023-02-11T01:18:06.201Z,31.77
2023-02-11T01:20:34.323Z,28.87
2023-02-11T01:23:02.119Z,30.53
2023-02-11T01:25:31.265Z,31.10
2023-02-11T01:27:58.982Z,31.47
2023-02-11T01:30:26.772Z,33.17
2023-02-11T01:32:54.714Z,32.87
2023-02-11T01:35:22.464Z,35.20
2023-02-11T01:37:50.196Z,33.33
2023-02-11T01:40:18.831Z,33.67
2023-02-11T01:42:50.914Z,35.57
2023-02-11T01:45:56.644Z,35.97
2023-02-11T01:48:28.398Z,36.07
2023-02-11T01:51:00.921Z,33.97
2023-02-11T01:53:47.430Z,36.67
2023-02-11T01:56:33.789Z,38.37
2023-02-11T01:59:08.709Z,41.87
2023-02-11T02:01:38.922Z,43.13
2023-02-11T02:04:08.374Z,38.50
2023-02-11T02:06:42.044Z,43.20
2023-02-11T02:09:16.577Z,41.97
2023-02-11T02:11:44.469Z,43.80
2023-02-11T02:14:13.538Z,45.17
2023-02-11T02:16:41.442Z,38.33
2023-02-11T02:19:33.793Z,37.77
2023-02-11T02:22:55.690Z,39.00
2023-02-11T02:25:49.213Z,36.67
2023-02-11T02:28:35.380Z,40.67
2023-02-11T02:31:28.223Z,38.83
2023-02-11T02:34:01.990Z,36.87
2023-02-11T02:36:36.456Z,36.30
2023-02-11T02:39:10.096Z,39.63
2023-02-11T02:41:39.996Z,38.30
2023-02-11T02:44:08.929Z,38.23
2023-02-11T02:46:37.644Z,36.90
2023-02-11T02:49:11.114Z,37.30
2023-02-11T02:52:01.609Z,35.23
2023-02-11T02:55:09.190Z,35.83
2023-02-11T02:57:45.533Z,36.57
2023-02-11T03:00:20.193Z,37.93
2023-02-11T03:02:59.347Z,37.07
2023-02-11T03:05:35.258Z,36.57
2023-02-11T03:08:09.253Z,37.60
2023-02-11T03:10:39.404Z,36.07
2023-02-11T03:13:08.237Z,35.60
2023-02-11T03:15:39.856Z,37.10
2023-02-11T03:18:12.889Z,37.83
2023-02-11T03:20:44.479Z,36.70
2023-02-11T03:23:14.845Z,34.17
2023-02-11T03:25:46.867Z,32.97
2023-02-11T03:28:19.133Z,39.27
2023-02-11T03:30:50.306Z,36.37
2023-02-11T03:33:25.139Z,33.90
2023-02-11T03:35:57.551Z,36.03
2023-02-11T03:38:30.953Z,35.67
2023-02-11T03:41:00.115Z,35.87
2023-02-11T03:43:31.958Z,33.30
2023-02-11T03:46:04.119Z,35.37
2023-02-11T03:48:34.023Z,36.00
2023-02-11T03:51:07.097Z,34.00
2023-02-11T03:53:34.864Z,37.97
2023-02-11T03:56:08.797Z,35.23
2023-02-11T03:58:36.522Z,33.53
2023-02-11T04:01:05.247Z,35.40
2023-02-11T04:03:33.477Z,34.37
2023-02-11T04:06:01.250Z,34.60
2023-02-11T04:08:31.614Z,36.20
2023-02-11T04:10:59.728Z,32.37
2023-02-11T04:13:28.292Z,33.13
2023-02-11T04:15:56.032Z,33.97
2023-02-11T04:18:23.746Z,33.53
2023-02-11T04:20:53.809Z,34.20
2023-02-11T04:23:21.616Z,37.20
2023-02-11T04:25:51.761Z,33.90
2023-02-11T04:28:22.595Z,37.50
2023-02-11T04:30:50.776Z,34.20
2023-02-11T04:33:18.687Z,35.50
2023-02-11T04:35:46.370Z,36.87
2023-02-11T04:38:14.370Z,36.27
2023-02-11T04:40:42.256Z,39.00
2023-02-11T04:43:11.351Z,36.57
2023-02-11T04:45:39.148Z,36.47
2023-02-11T04:48:07.199Z,34.77
2023-02-11T04:50:34.954Z,34.13
2023-02-11T04:53:02.760Z,34.70
2023-02-11T04:55:30.527Z,35.40
2023-02-11T04:57:58.215Z,35.20
2023-02-11T05:00:27.381Z,33.33
2023-02-11T05:02:55.094Z,34.10
2023-02-11T05:05:22.830Z,31.57
2023-02-11T05:07:50.535Z,34.03
2023-02-11T05:10:18.410Z,31.80
2023-02-11T05:12:46.131Z,31.60
2023-02-11T05:15:13.847Z,30.40
2023-02-11T05:17:42.931Z,31.27
2023-02-11T05:20:11.805Z,29.97
2023-02-11T05:22:40.706Z,28.97
2023-02-11T05:25:09.191Z,30.90
2023-02-11T05:27:37.052Z,30.40
2023-02-11T05:30:05.564Z,30.97
2023-02-11T05:32:33.673Z,30.23
2023-02-11T05:35:02.755Z,27.50
2023-02-11T05:37:30.502Z,26.90
2023-02-11T05:39:58.182Z,32.33
2023-02-11T05:42:25.932Z,27.70
2023-02-11T05:44:53.627Z,29.27
2023-02-11T05:47:21.363Z,28.43
2023-02-11T05:49:49.128Z,27.53
2023-02-11T05:52:18.262Z,25.73
2023-02-11T05:54:46.101Z,26.47
2023-02-11T05:57:14.310Z,26.47
2023-02-11T05:59:42.110Z,26.77
2023-02-11T06:02:10.360Z,27.60
2023-02-11T06:04:39.042Z,27.00
2023-02-11T06:07:06.907Z,27.00
2023-02-11T06:09:36.015Z,27.57
2023-02-11T06:12:03.734Z,25.73
2023-02-11T06:14:33.537Z,25.40
2023-02-11T06:17:01.292Z,28.37
2023-02-11T06:19:29.219Z,27.47
2023-02-11T06:21:56.993Z,27.73
2023-02-11T06:24:50.916Z,26.00
2023-02-11T06:27:14.351Z,25.23
2023-02-11T06:29:42.164Z,26.90
2023-02-11T06:32:19.555Z,27.23
2023-02-11T06:34:57.564Z,26.37
2023-02-11T06:37:25.248Z,25.37
2023-02-11T06:39:53.348Z,25.03
2023-02-11T06:42:22.443Z,27.33
2023-02-11T06:44:50.156Z,27.03
2023-02-11T06:47:17.905Z,27.27
2023-02-11T06:49:45.699Z,26.37
2023-02-11T06:52:13.420Z,26.67
2023-02-11T06:54:41.108Z,26.60
2023-02-11T06:57:08.839Z,27.90
2023-02-11T06:59:38.010Z,25.60
2023-02-11T07:02:05.855Z,24.97
2023-02-11T07:04:33.728Z,24.37
2023-02-11T07:07:01.562Z,26.43
2023-02-11T07:09:29.343Z,25.40
2023-02-11T07:11:57.078Z,27.03
2023-02-11T07:14:24.956Z,26.17
2023-02-11T07:16:54.066Z,25.33
2023-02-11T07:19:22.110Z,28.17
2023-02-11T07:21:49.813Z,25.23
2023-02-11T07:24:17.592Z,25.30
2023-02-11T07:26:45.662Z,26.17
2023-02-11T07:29:13.378Z,26.97
2023-02-11T07:31:41.341Z,23.87
2023-02-11T07:34:11.720Z,27.80
2023-02-11T07:36:39.510Z,25.07
2023-02-11T07:39:07.460Z,26.13
2023-02-11T07:41:37.708Z,28.40
2023-02-11T07:44:06.547Z,21.37
2023-02-11T07:46:35.699Z,26.40
2023-02-11T07:49:03.694Z,26.10
2023-02-11T07:51:32.796Z,27.47
2023-02-11T07:54:01.109Z,25.93
2023-02-11T07:56:30.388Z,27.40
2023-02-11T07:59:03.468Z,26.37
2023-02-11T08:01:31.986Z,26.37
2023-02-11T08:04:01.808Z,25.80
2023-02-11T08:06:33.897Z,25.40
2023-02-11T08:09:06.537Z,26.30
2023-02-11T08:11:34.668Z,25.60
2023-02-11T08:14:02.627Z,26.87
2023-02-11T08:16:32.497Z,24.80
2023-02-11T08:19:02.520Z,27.10
2023-02-11T08:21:30.636Z,24.47
2023-02-11T08:24:00.143Z,25.37
2023-02-11T08:26:30.197Z,24.43
2023-02-11T08:28:59.362Z,25.43
2023-02-11T08:31:30.019Z,25.00
2023-02-11T08:33:58.220Z,24.57
2023-02-11T08:36:29.018Z,23.13
2023-02-11T08:39:12.204Z,23.97
2023-02-11T08:41:48.792Z,22.80
2023-02-11T08:44:16.703Z,22.03
2023-02-11T08:46:44.436Z,24.87
2023-02-11T08:49:12.312Z,22.77
2023-02-11T08:51:40.033Z,23.63
2023-02-11T08:54:09.832Z,24.87
2023-02-11T08:56:38.362Z,22.10
2023-02-11T08:59:09.161Z,25.00
2023-02-11T09:01:37.050Z,22.93
2023-02-11T09:04:05.150Z,22.70
2023-02-11T09:06:33.550Z,23.53
2023-02-11T09:09:01.433Z,21.27
2023-02-11T09:11:32.738Z,22.80
2023-02-11T09:14:00.660Z,23.80
2023-02-11T09:16:32.320Z,22.13
2023-02-11T09:19:02.183Z,22.33
2023-02-11T09:21:30.731Z,22.67
2023-02-11T09:23:58.877Z,23.57
2023-02-11T09:26:28.073Z,22.27
2023-02-11T09:28:56.110Z,24.93
2023-02-11T09:31:26.181Z,22.73
2023-02-11T09:33:57.014Z,21.63
2023-02-11T09:36:26.876Z,21.00
2023-02-11T09:38:54.835Z,21.33
2023-02-11T09:41:39.312Z,20.50
2023-02-11T09:44:08.863Z,23.40
2023-02-11T09:46:38.794Z,25.77
2023-02-11T09:49:09.104Z,21.80
2023-02-11T09:51:43.202Z,22.67
2023-02-11T09:54:16.505Z,21.90
2023-02-11T09:56:44.254Z,23.47
2023-02-11T09:59:14.829Z,24.73
2023-02-11T10:01:48.268Z,22.37
2023-02-11T10:04:31.656Z,22.70
2023-02-11T10:07:08.589Z,22.80
2023-02-11T10:09:50.424Z,23.00
2023-02-11T10:12:32.213Z,22.83
2023-02-11T10:15:16.868Z,22.50
2023-02-11T10:18:02.898Z,21.67
2023-02-11T10:20:37.651Z,22.37
2023-02-11T10:23:14.740Z,22.80
2023-02-11T10:25:45.774Z,22.30
2023-02-11T10:28:16.943Z,22.27
2023-02-11T10:30:58.771Z,23.43
2023-02-11T10:33:30.401Z,22.00
2023-02-11T10:35:59.644Z,18.83
2023-02-11T10:38:28.421Z,22.83
2023-02-11T10:40:56.220Z,24.33
2023-02-11T10:43:27.639Z,24.03
2023-02-11T10:45:57.044Z,23.53
2023-02-11T10:48:43.602Z,22.20
2023-02-11T10:51:22.640Z,21.03
2023-02-11T10:53:52.595Z,22.90
2023-02-11T10:56:28.377Z,22.93
2023-02-11T10:58:59.862Z,22.60
2023-02-11T11:01:44.768Z,22.60
2023-02-11T11:04:36.481Z,21.87
2023-02-11T11:07:15.532Z,20.50
2023-02-11T11:09:55.020Z,21.77
2023-02-11T11:12:41.847Z,23.70
2023-02-11T11:15:21.725Z,21.97
2023-02-11T11:17:50.299Z,22.83
2023-02-11T11:20:27.238Z,20.87
2023-02-11T11:23:13.110Z,21.97
2023-02-11T11:25:43.925Z,21.90
2023-02-11T11:28:22.785Z,21.50
2023-02-11T11:30:52.053Z,22.40
2023-02-11T11:33:22.962Z,22.93
2023-02-11T11:36:03.497Z,23.87
2023-02-11T11:38:34.277Z,18.83
2023-02-11T11:41:21.972Z,22.83
2023-02-11T11:43:58.136Z,22.67
2023-02-11T11:46:31.584Z,22.70
2023-02-11T11:49:24.134Z,23.57
2023-02-11T11:52:00.783Z,22.70
2023-02-11T11:54:32.712Z,22.27
2023-02-11T11:57:04.581Z,22.13
2023-02-11T11:59:33.318Z,22.53
2023-02-11T12:02:16.627Z,22.03
2023-02-11T12:05:00.258Z,23.67
2023-02-11T12:07:38.875Z,22.83
2023-02-11T12:10:32.548Z,21.60
2023-02-11T12:13:10.373Z,25.07
2023-02-11T12:15:48.273Z,22.93
2023-02-11T12:18:36.110Z,21.30
2023-02-11T12:21:16.749Z,22.70
2023-02-11T12:23:57.274Z,20.27
2023-02-11T12:26:36.795Z,21.80
2023-02-11T12:29:14.923Z,21.03
2023-02-11T12:31:57.552Z,20.37
2023-02-11T12:34:53.692Z,20.90
2023-02-11T12:37:33.638Z,20.13
2023-02-11T12:40:15.770Z,23.37
2023-02-11T12:43:17.633Z,22.27
2023-02-11T12:46:02.007Z,21.43
2023-02-11T12:49:04.242Z,23.23
2023-02-11T12:51:53.445Z,21.80
2023-02-11T12:54:29.605Z,23.50
2023-02-11T12:57:03.152Z,23.50
2023-02-11T12:59:41.608Z,24.97
2023-02-11T13:02:19.373Z,22.00
2023-02-11T13:04:51.677Z,25.07
2023-02-11T13:07:25.429Z,23.50
2023-02-11T13:09:59.041Z,23.40
2023-02-11T13:12:49.605Z,23.90
2023-02-11T13:15:19.740Z,23.97
2023-02-11T13:17:56.059Z,24.30
2023-02-11T13:20:34.503Z,23.97
2023-02-11T13:23:11.326Z,24.47
2023-02-11T13:25:44.300Z,24.47
2023-02-11T13:28:35.989Z,23.00
2023-02-11T13:31:07.752Z,23.47
2023-02-11T13:33:37.743Z,24.40
2023-02-11T13:36:17.944Z,24.80
2023-02-11T13:39:02.551Z,22.63
2023-02-11T13:41:33.368Z,22.63
2023-02-11T13:44:04.925Z,23.53
2023-02-11T13:46:59.656Z,23.60
2023-02-11T13:49:32.607Z,25.07
2023-02-11T13:52:02.420Z,24.17
2023-02-11T13:54:34.336Z,24.40
2023-02-11T13:57:34.727Z,23.70
2023-02-11T14:00:28.476Z,22.33
2023-02-11T14:03:44.402Z,23.73
2023-02-11T14:06:33.843Z,22.10
2023-02-11T14:09:26.330Z,24.03
2023-02-11T14:11:57.175Z,23.00
2023-02-11T14:14:26.424Z,22.77
2023-02-11T14:17:31.904Z,21.87
2023-02-11T14:20:04.600Z,22.43
2023-02-11T14:22:45.305Z,20.03
2023-02-11T14:25:22.935Z,22.30
2023-02-11T14:27:55.300Z,21.90
2023-02-11T14:30:33.763Z,21.67
2023-02-11T14:33:32.469Z,23.60
2023-02-11T14:36:09.665Z,21.83
2023-02-11T14:38:48.400Z,24.67
2023-02-11T14:41:23.972Z,20.40
2023-02-11T14:43:55.289Z,21.03
2023-02-11T14:46:24.591Z,21.93
2023-02-11T14:48:55.716Z,20.70
2023-02-11T14:51:28.093Z,23.00
2023-02-11T14:54:00.897Z,23.53
2023-02-11T14:56:34.279Z,24.83
2023-02-11T14:59:02.884Z,22.60
2023-02-11T15:01:33.892Z,20.47
2023-02-11T15:04:02.881Z,22.90
2023-02-11T15:06:34.760Z,21.97
2023-02-11T15:09:07.239Z,23.73
2023-02-11T15:11:39.985Z,20.93
2023-02-11T15:14:10.893Z,23.23
2023-02-11T15:16:43.788Z,22.17
2023-02-11T15:19:21.380Z,23.27
2023-02-11T15:21:51.808Z,22.20
2023-02-11T15:24:25.518Z,23.07
2023-02-11T15:26:58.286Z,23.53
2023-02-11T15:29:30.109Z,22.73
2023-02-11T15:32:13.776Z,21.90
2023-02-11T15:34:46.878Z,26.43
2023-02-11T15:37:21.880Z,21.57
2023-02-11T15:39:50.614Z,23.00
2023-02-11T15:42:27.791Z,23.33
2023-02-11T15:45:25.190Z,23.87
2023-02-11T15:47:55.528Z,22.40
2023-02-11T15:50:25.921Z,22.43
2023-02-11T15:52:57.372Z,24.30
2023-02-11T15:55:30.221Z,22.93
2023-02-11T15:58:01.003Z,24.20
2023-02-11T16:00:34.788Z,25.23
2023-02-11T16:03:03.478Z,24.83
2023-02-11T16:05:34.736Z,24.73
2023-02-11T16:08:24.582Z,24.13
2023-02-11T16:10:58.570Z,26.33
2023-02-11T16:13:28.300Z,24.90
2023-02-11T16:16:00.887Z,24.33
2023-02-11T16:18:38.699Z,24.97
2023-02-11T16:21:08.793Z,24.07
2023-02-11T16:23:42.046Z,24.43
2023-02-11T16:26:21.729Z,26.07
2023-02-11T16:28:50.195Z,27.63
2023-02-11T16:31:18.603Z,25.80
2023-02-11T16:33:46.597Z,26.43
2023-02-11T16:36:17.113Z,25.90
2023-02-11T16:38:46.297Z,25.67
2023-02-11T16:41:14.348Z,26.07
2023-02-11T16:43:42.092Z,25.17
2023-02-11T16:46:12.144Z,24.83
2023-02-11T16:48:39.912Z,26.60
2023-02-11T16:51:09.660Z,25.93
2023-02-11T16:53:37.516Z,24.80
2023-02-11T16:56:07.076Z,24.93
2023-02-11T16:58:34.878Z,25.67
2023-02-11T17:01:02.855Z,25.77
2023-02-11T17:03:35.606Z,24.67
2023-02-11T17:06:05.656Z,27.20
2023-02-11T17:08:33.702Z,23.37
2023-02-11T17:11:01.474Z,24.77
2023-02-11T17:13:30.660Z,26.40
2023-02-11T17:15:58.524Z,25.37
2023-02-11T17:18:26.285Z,25.17
2023-02-11T17:20:54.023Z,23.60
2023-02-11T17:23:21.788Z,23.13
2023-02-11T17:25:56.853Z,22.77
2023-02-11T17:28:24.648Z,22.73
2023-02-11T17:30:53.901Z,23.13
2023-02-11T17:33:21.721Z,23.70
2023-02-11T17:35:50.078Z,22.80
2023-02-11T17:38:18.232Z,23.07
2023-02-11T17:40:46.000Z,23.40
2023-02-11T17:43:13.818Z,21.63
2023-02-11T17:45:42.368Z,23.03
2023-02-11T17:48:11.649Z,22.13
2023-02-11T17:50:39.529Z,22.60
2023-02-11T17:53:07.410Z,23.90
2023-02-11T17:55:35.724Z,21.90
2023-02-11T17:58:03.594Z,21.33
2023-02-11T18:00:32.251Z,19.93
2023-02-11T18:03:02.933Z,22.40
2023-02-11T18:05:35.524Z,21.97
2023-02-11T18:08:04.337Z,22.27
2023-02-11T18:10:33.501Z,24.07
2023-02-11T18:13:03.368Z,21.43
2023-02-11T18:15:32.064Z,22.70
2023-02-11T18:17:59.847Z,22.83
2023-02-11T18:20:27.686Z,22.73
2023-02-11T18:22:56.857Z,22.40
2023-02-11T18:25:24.763Z,21.00
2023-02-11T18:27:52.738Z,21.60
2023-02-11T18:30:21.417Z,20.40
2023-02-11T18:32:49.570Z,22.47
2023-02-11T18:35:17.720Z,20.20
2023-02-11T18:37:45.603Z,21.50
2023-02-11T18:40:15.714Z,20.47
2023-02-11T18:42:43.960Z,21.40
2023-02-11T18:45:15.064Z,18.50
2023-02-11T18:47:42.889Z,19.90
2023-02-11T18:50:13.825Z,20.17
2023-02-11T18:52:41.809Z,19.80
2023-02-11T18:55:10.686Z,19.50
2023-02-11T18:57:39.901Z,19.07
2023-02-11T19:00:10.079Z,18.50
2023-02-11T19:02:38.066Z,16.93
2023-02-11T19:05:06.837Z,17.57
2023-02-11T19:07:34.530Z,19.13
2023-02-11T19:10:02.303Z,18.20
2023-02-11T19:12:30.076Z,17.03
2023-02-11T19:15:00.516Z,17.23
2023-02-11T19:17:28.479Z,16.73
2023-02-11T19:19:56.211Z,16.37
2023-02-11T19:22:24.048Z,17.50
2023-02-11T19:24:53.925Z,16.07
2023-02-11T19:27:21.708Z,15.80
2023-02-11T19:29:49.512Z,16.93
2023-02-11T19:32:18.751Z,18.13
2023-02-11T19:34:46.524Z,17.57
2023-02-11T19:37:14.522Z,16.90
2023-02-11T19:39:42.814Z,17.50
2023-02-11T19:42:10.793Z,19.40
2023-02-11T19:44:38.956Z,17.17
2023-02-11T19:47:07.707Z,18.83
2023-02-11T19:49:36.990Z,20.47
2023-02-11T19:52:05.337Z,20.03
2023-02-11T19:54:33.377Z,19.17
2023-02-11T19:57:01.357Z,18.20
2023-02-11T19:59:29.300Z,20.30
2023-02-11T20:01:58.133Z,21.07
2023-02-11T20:04:26.146Z,19.83
2023-02-11T20:06:55.400Z,21.23
2023-02-11T20:09:23.392Z,22.57
2023-02-11T20:11:51.883Z,20.67
2023-02-11T20:14:20.090Z,21.53
2023-02-11T20:16:49.980Z,20.93
2023-02-11T20:19:19.955Z,20.17
2023-02-11T20:21:49.580Z,20.67
2023-02-11T20:24:19.712Z,20.10
2023-02-11T20:26:48.711Z,17.47
2023-02-11T20:29:17.068Z,21.67
2023-02-11T20:31:45.388Z,20.10
2023-02-11T20:34:13.410Z,23.00
2023-02-11T20:36:41.553Z,21.87
2023-02-11T20:39:11.371Z,21.57
2023-02-11T20:41:40.778Z,21.27
2023-02-11T20:44:11.576Z,21.27
2023-02-11T20:46:41.342Z,20.10
2023-02-11T20:49:10.871Z,20.83
2023-02-11T20:51:38.857Z,19.70
2023-02-11T20:54:07.614Z,21.30
2023-02-11T20:56:37.537Z,20.83
2023-02-11T20:59:07.869Z,20.00
2023-02-11T21:01:36.985Z,19.73
2023-02-11T21:04:06.566Z,21.93
2023-02-11T21:06:36.857Z,22.43
2023-02-11T21:09:05.488Z,21.27
2023-02-11T21:11:34.179Z,21.57
2023-02-11T21:14:03.324Z,20.53
2023-02-11T21:16:33.327Z,20.37
2023-02-11T21:19:02.802Z,18.60
2023-02-11T21:21:31.592Z,20.10
2023-02-11T21:23:59.378Z,19.20
2023-02-11T21:26:27.315Z,19.43
2023-02-11T21:28:55.221Z,19.27
2023-02-11T21:31:24.862Z,17.87
2023-02-11T21:33:55.085Z,19.93
2023-02-11T21:36:23.626Z,20.53
2023-02-11T21:38:52.824Z,18.47
2023-02-11T21:41:22.650Z,18.33
2023-02-11T21:43:52.157Z,19.37
2023-02-11T21:46:20.833Z,19.17
2023-02-11T21:48:49.452Z,18.67
2023-02-11T21:51:20.393Z,18.40
2023-02-11T21:53:48.626Z,20.13
2023-02-11T21:56:18.577Z,17.40
2023-02-11T21:58:47.012Z,18.17
2023-02-11T22:01:16.000Z,17.80
2023-02-11T22:03:44.448Z,17.83
2023-02-11T22:06:14.591Z,17.43
2023-02-11T22:08:43.706Z,16.37
2023-02-11T22:11:13.104Z,18.63
2023-02-11T22:13:41.648Z,17.40
2023-02-11T22:16:12.470Z,17.00
2023-02-11T22:18:40.499Z,17.57
2023-02-11T22:21:11.014Z,16.30
2023-02-11T22:23:40.049Z,15.73
2023-02-11T22:26:11.416Z,15.47
2023-02-11T22:28:40.810Z,16.10
2023-02-11T22:31:12.079Z,16.13
2023-02-11T22:33:39.957Z,15.13
2023-02-11T22:36:12.372Z,15.33
2023-02-11T22:38:40.140Z,15.73
2023-02-11T22:41:10.814Z,14.60
2023-02-11T22:43:39.163Z,14.77
2023-02-11T22:46:08.457Z,15.10
2023-02-11T22:48:37.002Z,15.17
2023-02-11T22:51:06.003Z,14.80
2023-02-11T22:53:33.919Z,14.67
2023-02-11T22:56:05.907Z,13.97
2023-02-11T22:58:35.392Z,15.33
2023-02-11T23:01:03.339Z,14.63
2023-02-11T23:03:31.238Z,14.17
2023-02-11T23:05:59.812Z,15.13
2023-02-11T23:08:28.468Z,14.53
2023-02-11T23:10:56.408Z,15.50
2023-02-11T23:13:24.226Z,14.80
2023-02-11T23:15:55.160Z,14.57
2023-02-11T23:18:23.261Z,14.60
2023-02-11T23:20:51.093Z,14.53
2023-02-11T23:23:18.811Z,14.23
2023-02-11T23:25:46.554Z,14.93
2023-02-11T23:28:14.318Z,15.03
2023-02-11T23:30:42.386Z,15.20
2023-02-11T23:33:11.482Z,16.63
2023-02-11T23:35:39.270Z,14.77
2023-02-11T23:38:07.043Z,15.03
2023-02-11T23:40:34.820Z,14.73
2023-02-11T23:43:02.699Z,15.90
2023-02-11T23:45:31.334Z,14.80
2023-02-11T23:47:59.159Z,16.07
2023-02-11T23:50:28.348Z,16.17
2023-02-11T23:52:56.144Z,14.80
2023-02-11T23:55:23.923Z,15.67
2023-02-11T23:57:51.684Z,15.53
